sensor_id;sensor_type;location;lat;lon;timestamp;P1;durP1;ratioP1;P2;durP2;ratioP2
13590;SDS011;6866;50.778;7.206;2022-12-04T00:01:22;37.00;;;18.10;;
13590;SDS011;6866;50.778;7.206;2022-12-04T00:03:53;37.17;;;18.80;;
13590;SDS011;6866;50.778;7.206;2022-12-04T00:06:20;35.33;;;17.27;;
13590;SDS011;6866;50.778;7.206;2022-12-04T00:08:47;35.10;;;17.77;;
13590;SDS011;6866;50.778;7.206;2022-12-04T00:11:14;40.50;;;18.92;;
13590;SDS011;6866;50.778;7.206;2022-12-04T00:13:42;38.85;;;18.00;;
13590;SDS011;6866;50.778;7.206;2022-12-04T00:16:10;37.55;;;18.13;;
13590;SDS011;6866;50.778;7.206;2022-12-04T00:18:37;41.20;;;18.55;;
13590;SDS011;6866;50.778;7.206;2022-12-04T00:21:04;34.25;;;17.63;;
13590;SDS011;6866;50.778;7.206;2022-12-04T00:23:31;37.83;;;17.70;;
13590;SDS011;6866;50.778;7.206;2022-12-04T00:26:01;42.17;;;19.23;;
13590;SDS011;6866;50.778;7.206;2022-12-04T00:28:28;37.10;;;18.30;;
13590;SDS011;6866;50.778;7.206;2022-12-04T00:30:54;35.53;;;17.48;;
13590;SDS011;6866;50.778;7.206;2022-12-04T00:33:20;37.28;;;17.70;;
13590;SDS011;6866;50.778;7.206;2022-12-04T00:35:45;38.47;;;18.27;;
13590;SDS011;6866;50.778;7.206;2022-12-04T00:38:11;40.25;;;19.85;;
13590;SDS011;6866;50.778;7.206;2022-12-04T00:40:36;37.72;;;17.95;;
13590;SDS011;6866;50.778;7.206;2022-12-04T00:43:02;36.92;;;17.70;;
13590;SDS011;6866;50.778;7.206;2022-12-04T00:45:27;37.25;;;17.25;;
13590;SDS011;6866;50.778;7.206;2022-12-04T00:47:53;36.05;;;17.83;;
13590;SDS011;6866;50.778;7.206;2022-12-04T00:50:19;35.78;;;18.00;;
13590;SDS011;6866;50.778;7.206;2022-12-04T00:52:44;35.83;;;17.65;;
13590;SDS011;6866;50.778;7.206;2022-12-04T00:55:10;39.25;;;18.92;;
13590;SDS011;6866;50.778;7.206;2022-12-04T00:57:36;36.33;;;17.45;;
13590;SDS011;6866;50.778;7.206;2022-12-04T01:00:01;34.85;;;16.80;;
13590;SDS011;6866;50.778;7.206;2022-12-04T01:02:29;33.75;;;17.30;;
13590;SDS011;6866;50.778;7.206;2022-12-04T01:04:55;35.85;;;16.85;;
13590;SDS011;6866;50.778;7.206;2022-12-04T01:07:20;33.17;;;15.80;;
13590;SDS011;6866;50.778;7.206;2022-12-04T01:09:46;30.38;;;15.77;;
13590;SDS011;6866;50.778;7.206;2022-12-04T01:12:11;32.70;;;16.08;;
13590;SDS011;6866;50.778;7.206;2022-12-04T01:14:37;31.00;;;15.05;;
13590;SDS011;6866;50.778;7.206;2022-12-04T01:17:02;28.42;;;14.27;;
13590;SDS011;6866;50.778;7.206;2022-12-04T01:19:28;28.73;;;14.50;;
13590;SDS011;6866;50.778;7.206;2022-12-04T01:21:53;24.27;;;12.02;;
13590;SDS011;6866;50.778;7.206;2022-12-04T01:24:19;25.48;;;13.20;;
13590;SDS011;6866;50.778;7.206;2022-12-04T01:26:45;27.00;;;13.25;;
13590;SDS011;6866;50.778;7.206;2022-12-04T01:29:10;25.13;;;12.40;;
13590;SDS011;6866;50.778;7.206;2022-12-04T01:31:36;24.23;;;12.60;;
13590;SDS011;6866;50.778;7.206;2022-12-04T01:34:02;22.27;;;11.80;;
13590;SDS011;6866;50.778;7.206;2022-12-04T01:36:28;24.30;;;13.15;;
13590;SDS011;6866;50.778;7.206;2022-12-04T01:38:54;24.85;;;13.13;;
13590;SDS011;6866;50.778;7.206;2022-12-04T01:41:21;27.38;;;13.07;;
13590;SDS011;6866;50.778;7.206;2022-12-04T01:46:51;28.33;;;14.13;;
13590;SDS011;6866;50.778;7.206;2022-12-04T01:49:20;25.63;;;12.30;;
13590;SDS011;6866;50.778;7.206;2022-12-04T01:52:04;23.27;;;12.25;;
13590;SDS011;6866;50.778;7.206;2022-12-04T01:54:33;23.15;;;12.38;;
13590;SDS011;6866;50.778;7.206;2022-12-04T01:57:03;22.13;;;12.02;;
13590;SDS011;6866;50.778;7.206;2022-12-04T01:59:36;21.40;;;11.38;;
13590;SDS011;6866;50.778;7.206;2022-12-04T02:04:43;22.00;;;11.35;;
13590;SDS011;6866;50.778;7.206;2022-12-04T02:07:10;21.95;;;11.57;;
13590;SDS011;6866;50.778;7.206;2022-12-04T02:09:36;20.27;;;10.43;;
13590;SDS011;6866;50.778;7.206;2022-12-04T02:12:09;21.90;;;10.95;;
13590;SDS011;6866;50.778;7.206;2022-12-04T02:17:41;23.17;;;12.32;;
13590;SDS011;6866;50.778;7.206;2022-12-04T02:31:30;21.27;;;10.57;;
13590;SDS011;6866;50.778;7.206;2022-12-04T02:34:22;29.02;;;14.27;;
13590;SDS011;6866;50.778;7.206;2022-12-04T02:37:02;17.90;;;10.30;;
13590;SDS011;6866;50.778;7.206;2022-12-04T02:39:35;17.95;;;9.38;;
13590;SDS011;6866;50.778;7.206;2022-12-04T02:42:15;20.25;;;10.77;;
13590;SDS011;6866;50.778;7.206;2022-12-04T02:44:49;19.10;;;9.95;;
13590;SDS011;6866;50.778;7.206;2022-12-04T02:47:21;18.83;;;10.07;;
13590;SDS011;6866;50.778;7.206;2022-12-04T02:49:50;18.55;;;9.82;;
13590;SDS011;6866;50.778;7.206;2022-12-04T02:52:20;16.63;;;8.77;;
13590;SDS011;6866;50.778;7.206;2022-12-04T02:54:50;19.05;;;9.85;;
13590;SDS011;6866;50.778;7.206;2022-12-04T02:57:23;19.17;;;10.48;;
13590;SDS011;6866;50.778;7.206;2022-12-04T02:59:53;17.58;;;9.52;;
13590;SDS011;6866;50.778;7.206;2022-12-04T03:02:23;20.25;;;10.18;;
13590;SDS011;6866;50.778;7.206;2022-12-04T03:04:56;17.27;;;9.55;;
13590;SDS011;6866;50.778;7.206;2022-12-04T03:07:33;16.60;;;9.10;;
13590;SDS011;6866;50.778;7.206;2022-12-04T03:10:05;18.42;;;9.50;;
13590;SDS011;6866;50.778;7.206;2022-12-04T03:12:37;17.65;;;9.35;;
13590;SDS011;6866;50.778;7.206;2022-12-04T03:15:11;19.48;;;9.98;;
13590;SDS011;6866;50.778;7.206;2022-12-04T03:17:50;18.70;;;9.75;;
13590;SDS011;6866;50.778;7.206;2022-12-04T03:20:20;16.58;;;9.02;;
13590;SDS011;6866;50.778;7.206;2022-12-04T03:22:48;19.42;;;9.65;;
13590;SDS011;6866;50.778;7.206;2022-12-04T03:25:20;24.60;;;13.02;;
13590;SDS011;6866;50.778;7.206;2022-12-04T03:28:06;21.13;;;10.05;;
13590;SDS011;6866;50.778;7.206;2022-12-04T03:30:43;19.95;;;10.32;;
13590;SDS011;6866;50.778;7.206;2022-12-04T03:33:15;18.30;;;9.98;;
13590;SDS011;6866;50.778;7.206;2022-12-04T03:38:17;17.90;;;9.60;;
13590;SDS011;6866;50.778;7.206;2022-12-04T03:40:57;19.80;;;9.73;;
13590;SDS011;6866;50.778;7.206;2022-12-04T03:46:29;17.55;;;9.68;;
13590;SDS011;6866;50.778;7.206;2022-12-04T03:54:19;17.83;;;9.65;;
13590;SDS011;6866;50.778;7.206;2022-12-04T03:56:49;18.05;;;9.40;;
13590;SDS011;6866;50.778;7.206;2022-12-04T03:59:21;17.10;;;9.13;;
13590;SDS011;6866;50.778;7.206;2022-12-04T04:01:51;18.42;;;9.23;;
13590;SDS011;6866;50.778;7.206;2022-12-04T04:04:26;14.80;;;8.93;;
13590;SDS011;6866;50.778;7.206;2022-12-04T04:06:58;17.02;;;8.82;;
13590;SDS011;6866;50.778;7.206;2022-12-04T04:09:30;15.70;;;8.40;;
13590;SDS011;6866;50.778;7.206;2022-12-04T04:12:04;16.67;;;8.75;;
13590;SDS011;6866;50.778;7.206;2022-12-04T04:14:50;17.58;;;9.27;;
13590;SDS011;6866;50.778;7.206;2022-12-04T04:17:42;15.57;;;8.63;;
13590;SDS011;6866;50.778;7.206;2022-12-04T04:20:29;16.20;;;9.00;;
13590;SDS011;6866;50.778;7.206;2022-12-04T04:23:22;16.05;;;8.45;;
13590;SDS011;6866;50.778;7.206;2022-12-04T04:26:10;14.38;;;7.88;;
13590;SDS011;6866;50.778;7.206;2022-12-04T04:28:39;15.73;;;8.85;;
13590;SDS011;6866;50.778;7.206;2022-12-04T04:33:35;15.68;;;8.68;;
13590;SDS011;6866;50.778;7.206;2022-12-04T04:36:26;15.70;;;8.43;;
13590;SDS011;6866;50.778;7.206;2022-12-04T04:39:23;14.32;;;8.10;;
13590;SDS011;6866;50.778;7.206;2022-12-04T04:42:01;15.38;;;8.32;;
13590;SDS011;6866;50.778;7.206;2022-12-04T04:44:45;14.20;;;7.90;;
13590;SDS011;6866;50.778;7.206;2022-12-04T04:47:35;14.85;;;7.65;;
13590;SDS011;6866;50.778;7.206;2022-12-04T04:50:07;15.32;;;8.60;;
13590;SDS011;6866;50.778;7.206;2022-12-04T04:52:35;15.23;;;8.25;;
13590;SDS011;6866;50.778;7.206;2022-12-04T04:55:03;17.50;;;8.63;;
13590;SDS011;6866;50.778;7.206;2022-12-04T04:57:32;14.15;;;7.63;;
13590;SDS011;6866;50.778;7.206;2022-12-04T04:59:59;16.08;;;9.20;;
13590;SDS011;6866;50.778;7.206;2022-12-04T05:02:26;15.02;;;8.07;;
13590;SDS011;6866;50.778;7.206;2022-12-04T05:04:52;15.18;;;8.02;;
13590;SDS011;6866;50.778;7.206;2022-12-04T05:07:19;14.80;;;8.05;;
13590;SDS011;6866;50.778;7.206;2022-12-04T05:09:44;13.73;;;7.88;;
13590;SDS011;6866;50.778;7.206;2022-12-04T05:12:10;14.75;;;7.90;;
13590;SDS011;6866;50.778;7.206;2022-12-04T05:14:35;14.48;;;7.88;;
13590;SDS011;6866;50.778;7.206;2022-12-04T05:17:02;14.45;;;7.63;;
13590;SDS011;6866;50.778;7.206;2022-12-04T05:19:31;14.57;;;8.23;;
13590;SDS011;6866;50.778;7.206;2022-12-04T05:22:25;13.85;;;7.63;;
13590;SDS011;6866;50.778;7.206;2022-12-04T05:24:52;14.30;;;7.43;;
13590;SDS011;6866;50.778;7.206;2022-12-04T05:27:19;13.55;;;8.13;;
13590;SDS011;6866;50.778;7.206;2022-12-04T05:29:45;14.05;;;7.60;;
13590;SDS011;6866;50.778;7.206;2022-12-04T05:32:11;15.48;;;8.02;;
13590;SDS011;6866;50.778;7.206;2022-12-04T05:34:36;15.38;;;8.05;;
13590;SDS011;6866;50.778;7.206;2022-12-04T05:37:02;14.88;;;8.13;;
13590;SDS011;6866;50.778;7.206;2022-12-04T05:39:28;15.30;;;8.13;;
13590;SDS011;6866;50.778;7.206;2022-12-04T05:41:53;14.75;;;8.30;;
13590;SDS011;6866;50.778;7.206;2022-12-04T05:44:19;15.30;;;7.93;;
13590;SDS011;6866;50.778;7.206;2022-12-04T05:46:44;15.25;;;8.30;;
13590;SDS011;6866;50.778;7.206;2022-12-04T05:49:10;17.67;;;9.10;;
13590;SDS011;6866;50.778;7.206;2022-12-04T05:51:35;16.70;;;7.95;;
13590;SDS011;6866;50.778;7.206;2022-12-04T05:54:01;14.68;;;8.50;;
13590;SDS011;6866;50.778;7.206;2022-12-04T05:56:26;16.90;;;8.40;;
13590;SDS011;6866;50.778;7.206;2022-12-04T05:58:52;15.73;;;8.77;;
13590;SDS011;6866;50.778;7.206;2022-12-04T06:01:19;20.08;;;9.68;;
13590;SDS011;6866;50.778;7.206;2022-12-04T06:03:46;17.80;;;9.95;;
13590;SDS011;6866;50.778;7.206;2022-12-04T06:06:13;18.85;;;9.90;;
13590;SDS011;6866;50.778;7.206;2022-12-04T06:08:39;16.85;;;9.57;;
13590;SDS011;6866;50.778;7.206;2022-12-04T06:11:12;18.63;;;9.30;;
13590;SDS011;6866;50.778;7.206;2022-12-04T06:13:40;17.60;;;9.60;;
13590;SDS011;6866;50.778;7.206;2022-12-04T06:16:11;18.75;;;9.57;;
13590;SDS011;6866;50.778;7.206;2022-12-04T06:18:37;19.13;;;9.43;;
13590;SDS011;6866;50.778;7.206;2022-12-04T06:21:03;18.77;;;9.32;;
13590;SDS011;6866;50.778;7.206;2022-12-04T06:23:28;17.85;;;9.13;;
13590;SDS011;6866;50.778;7.206;2022-12-04T06:25:54;18.50;;;9.98;;
13590;SDS011;6866;50.778;7.206;2022-12-04T06:28:19;18.58;;;10.05;;
13590;SDS011;6866;50.778;7.206;2022-12-04T06:30:45;17.70;;;9.70;;
13590;SDS011;6866;50.778;7.206;2022-12-04T06:33:10;18.77;;;9.93;;
13590;SDS011;6866;50.778;7.206;2022-12-04T06:35:36;19.90;;;10.63;;
13590;SDS011;6866;50.778;7.206;2022-12-04T06:38:01;19.88;;;9.98;;
13590;SDS011;6866;50.778;7.206;2022-12-04T06:40:27;16.77;;;9.38;;
13590;SDS011;6866;50.778;7.206;2022-12-04T06:42:52;17.85;;;9.43;;
13590;SDS011;6866;50.778;7.206;2022-12-04T06:45:18;20.27;;;10.60;;
13590;SDS011;6866;50.778;7.206;2022-12-04T06:47:43;16.88;;;8.98;;
13590;SDS011;6866;50.778;7.206;2022-12-04T06:50:09;16.55;;;9.55;;
13590;SDS011;6866;50.778;7.206;2022-12-04T06:52:35;20.13;;;10.30;;
13590;SDS011;6866;50.778;7.206;2022-12-04T06:55:00;21.10;;;11.18;;
13590;SDS011;6866;50.778;7.206;2022-12-04T06:57:26;22.98;;;11.73;;
13590;SDS011;6866;50.778;7.206;2022-12-04T06:59:51;21.90;;;10.88;;
13590;SDS011;6866;50.778;7.206;2022-12-04T07:02:17;19.70;;;11.18;;
13590;SDS011;6866;50.778;7.206;2022-12-04T07:04:42;22.95;;;12.48;;
13590;SDS011;6866;50.778;7.206;2022-12-04T07:07:09;21.08;;;10.88;;
13590;SDS011;6866;50.778;7.206;2022-12-04T07:09:34;21.05;;;11.38;;
13590;SDS011;6866;50.778;7.206;2022-12-04T07:12:00;20.80;;;10.48;;
13590;SDS011;6866;50.778;7.206;2022-12-04T07:14:26;19.77;;;10.18;;
13590;SDS011;6866;50.778;7.206;2022-12-04T07:16:51;22.80;;;10.82;;
13590;SDS011;6866;50.778;7.206;2022-12-04T07:19:17;17.25;;;9.88;;
13590;SDS011;6866;50.778;7.206;2022-12-04T07:21:42;19.95;;;10.30;;
13590;SDS011;6866;50.778;7.206;2022-12-04T07:24:08;20.75;;;10.75;;
13590;SDS011;6866;50.778;7.206;2022-12-04T07:26:40;20.40;;;11.02;;
13590;SDS011;6866;50.778;7.206;2022-12-04T07:29:05;21.13;;;10.98;;
13590;SDS011;6866;50.778;7.206;2022-12-04T07:31:31;21.83;;;11.43;;
13590;SDS011;6866;50.778;7.206;2022-12-04T07:33:56;23.30;;;11.65;;
13590;SDS011;6866;50.778;7.206;2022-12-04T07:36:23;22.10;;;11.48;;
13590;SDS011;6866;50.778;7.206;2022-12-04T07:38:49;20.33;;;11.77;;
13590;SDS011;6866;50.778;7.206;2022-12-04T07:41:16;21.38;;;11.73;;
13590;SDS011;6866;50.778;7.206;2022-12-04T07:43:42;20.40;;;10.50;;
13590;SDS011;6866;50.778;7.206;2022-12-04T07:46:09;21.92;;;11.02;;
13590;SDS011;6866;50.778;7.206;2022-12-04T07:48:40;20.05;;;10.93;;
13590;SDS011;6866;50.778;7.206;2022-12-04T07:51:07;22.70;;;11.73;;
13590;SDS011;6866;50.778;7.206;2022-12-04T07:53:34;22.30;;;11.70;;
13590;SDS011;6866;50.778;7.206;2022-12-04T07:56:00;21.90;;;11.82;;
13590;SDS011;6866;50.778;7.206;2022-12-04T07:58:26;23.88;;;12.02;;
13590;SDS011;6866;50.778;7.206;2022-12-04T08:00:52;22.38;;;10.77;;
13590;SDS011;6866;50.778;7.206;2022-12-04T08:03:19;21.52;;;11.90;;
13590;SDS011;6866;50.778;7.206;2022-12-04T08:05:44;21.90;;;11.38;;
13590;SDS011;6866;50.778;7.206;2022-12-04T08:08:10;19.98;;;10.55;;
13590;SDS011;6866;50.778;7.206;2022-12-04T08:10:38;20.95;;;11.05;;
13590;SDS011;6866;50.778;7.206;2022-12-04T08:13:04;21.02;;;10.88;;
13590;SDS011;6866;50.778;7.206;2022-12-04T08:15:30;22.35;;;11.27;;
13590;SDS011;6866;50.778;7.206;2022-12-04T08:17:55;21.67;;;10.85;;
13590;SDS011;6866;50.778;7.206;2022-12-04T08:20:21;17.83;;;10.10;;
13590;SDS011;6866;50.778;7.206;2022-12-04T08:22:46;22.73;;;11.05;;
13590;SDS011;6866;50.778;7.206;2022-12-04T08:25:12;18.60;;;9.90;;
13590;SDS011;6866;50.778;7.206;2022-12-04T08:27:38;18.83;;;10.43;;
13590;SDS011;6866;50.778;7.206;2022-12-04T08:30:03;18.35;;;10.27;;
13590;SDS011;6866;50.778;7.206;2022-12-04T08:32:29;16.33;;;9.43;;
13590;SDS011;6866;50.778;7.206;2022-12-04T08:34:55;19.17;;;10.00;;
13590;SDS011;6866;50.778;7.206;2022-12-04T08:37:20;17.08;;;9.57;;
13590;SDS011;6866;50.778;7.206;2022-12-04T08:39:46;18.25;;;10.20;;
13590;SDS011;6866;50.778;7.206;2022-12-04T08:42:11;20.27;;;9.77;;
13590;SDS011;6866;50.778;7.206;2022-12-04T08:44:37;18.42;;;10.20;;
13590;SDS011;6866;50.778;7.206;2022-12-04T08:47:02;18.60;;;9.82;;
13590;SDS011;6866;50.778;7.206;2022-12-04T08:49:28;20.40;;;10.75;;
13590;SDS011;6866;50.778;7.206;2022-12-04T08:51:54;18.85;;;10.23;;
13590;SDS011;6866;50.778;7.206;2022-12-04T08:54:19;19.88;;;10.70;;
13590;SDS011;6866;50.778;7.206;2022-12-04T08:56:45;16.88;;;9.77;;
13590;SDS011;6866;50.778;7.206;2022-12-04T08:59:11;18.92;;;9.95;;
13590;SDS011;6866;50.778;7.206;2022-12-04T09:01:37;17.63;;;9.77;;
13590;SDS011;6866;50.778;7.206;2022-12-04T09:04:02;18.48;;;10.15;;
13590;SDS011;6866;50.778;7.206;2022-12-04T09:06:28;18.00;;;10.25;;
13590;SDS011;6866;50.778;7.206;2022-12-04T09:08:54;19.98;;;10.10;;
13590;SDS011;6866;50.778;7.206;2022-12-04T09:11:21;18.95;;;10.63;;
13590;SDS011;6866;50.778;7.206;2022-12-04T09:13:48;18.70;;;9.57;;
13590;SDS011;6866;50.778;7.206;2022-12-04T09:16:18;18.73;;;10.50;;
13590;SDS011;6866;50.778;7.206;2022-12-04T09:18:46;19.40;;;9.57;;
13590;SDS011;6866;50.778;7.206;2022-12-04T09:21:12;20.60;;;10.25;;
13590;SDS011;6866;50.778;7.206;2022-12-04T09:23:39;16.17;;;9.63;;
13590;SDS011;6866;50.778;7.206;2022-12-04T09:26:13;18.48;;;9.77;;
13590;SDS011;6866;50.778;7.206;2022-12-04T09:28:43;18.05;;;9.80;;
13590;SDS011;6866;50.778;7.206;2022-12-04T09:31:08;18.45;;;9.50;;
13590;SDS011;6866;50.778;7.206;2022-12-04T09:33:34;17.55;;;9.88;;
13590;SDS011;6866;50.778;7.206;2022-12-04T09:36:00;17.85;;;9.50;;
13590;SDS011;6866;50.778;7.206;2022-12-04T09:38:27;18.15;;;10.05;;
13590;SDS011;6866;50.778;7.206;2022-12-04T09:40:57;18.38;;;9.98;;
13590;SDS011;6866;50.778;7.206;2022-12-04T09:43:46;17.25;;;9.60;;
13590;SDS011;6866;50.778;7.206;2022-12-04T09:46:35;17.98;;;9.77;;
13590;SDS011;6866;50.778;7.206;2022-12-04T09:49:05;16.70;;;9.50;;
13590;SDS011;6866;50.778;7.206;2022-12-04T09:51:36;19.75;;;9.98;;
13590;SDS011;6866;50.778;7.206;2022-12-04T09:54:06;16.90;;;10.10;;
13590;SDS011;6866;50.778;7.206;2022-12-04T09:56:38;18.15;;;9.60;;
13590;SDS011;6866;50.778;7.206;2022-12-04T09:59:07;20.23;;;10.93;;
13590;SDS011;6866;50.778;7.206;2022-12-04T10:01:40;20.88;;;10.48;;
13590;SDS011;6866;50.778;7.206;2022-12-04T10:04:12;19.52;;;10.50;;
13590;SDS011;6866;50.778;7.206;2022-12-04T10:07:21;19.08;;;10.60;;
13590;SDS011;6866;50.778;7.206;2022-12-04T10:09:33;20.13;;;11.13;;
13590;SDS011;6866;50.778;7.206;2022-12-04T10:15:37;20.25;;;10.48;;
13590;SDS011;6866;50.778;7.206;2022-12-04T10:23:36;19.45;;;10.75;;
13590;SDS011;6866;50.778;7.206;2022-12-04T10:26:21;21.25;;;11.15;;
13590;SDS011;6866;50.778;7.206;2022-12-04T10:28:52;21.88;;;11.35;;
13590;SDS011;6866;50.778;7.206;2022-12-04T10:31:24;21.42;;;11.27;;
13590;SDS011;6866;50.778;7.206;2022-12-04T10:36:20;20.45;;;10.38;;
13590;SDS011;6866;50.778;7.206;2022-12-04T10:44:21;22.88;;;11.07;;
13590;SDS011;6866;50.778;7.206;2022-12-04T10:46:47;23.50;;;11.55;;
13590;SDS011;6866;50.778;7.206;2022-12-04T10:49:27;22.27;;;11.27;;
13590;SDS011;6866;50.778;7.206;2022-12-04T10:51:55;20.92;;;11.43;;
13590;SDS011;6866;50.778;7.206;2022-12-04T10:54:31;20.27;;;10.55;;
13590;SDS011;6866;50.778;7.206;2022-12-04T10:57:00;21.67;;;11.20;;
13590;SDS011;6866;50.778;7.206;2022-12-04T10:59:30;19.27;;;10.23;;
13590;SDS011;6866;50.778;7.206;2022-12-04T11:04:36;22.95;;;11.25;;
13590;SDS011;6866;50.778;7.206;2022-12-04T11:07:15;18.95;;;10.00;;
13590;SDS011;6866;50.778;7.206;2022-12-04T11:09:57;20.95;;;11.15;;
13590;SDS011;6866;50.778;7.206;2022-12-04T11:12:27;21.25;;;11.48;;
13590;SDS011;6866;50.778;7.206;2022-12-04T11:15:11;26.70;;;10.57;;
13590;SDS011;6866;50.778;7.206;2022-12-04T11:17:38;20.40;;;10.48;;
13590;SDS011;6866;50.778;7.206;2022-12-04T11:20:05;24.33;;;11.35;;
13590;SDS011;6866;50.778;7.206;2022-12-04T11:22:45;20.77;;;10.80;;
13590;SDS011;6866;50.778;7.206;2022-12-04T11:25:14;20.13;;;10.77;;
13590;SDS011;6866;50.778;7.206;2022-12-04T11:27:44;23.15;;;12.52;;
13590;SDS011;6866;50.778;7.206;2022-12-04T11:30:13;19.90;;;10.63;;
13590;SDS011;6866;50.778;7.206;2022-12-04T11:32:43;20.63;;;10.68;;
13590;SDS011;6866;50.778;7.206;2022-12-04T11:35:22;22.83;;;11.07;;
13590;SDS011;6866;50.778;7.206;2022-12-04T11:38:12;21.30;;;10.38;;
13590;SDS011;6866;50.778;7.206;2022-12-04T11:40:58;20.38;;;10.27;;
13590;SDS011;6866;50.778;7.206;2022-12-04T11:43:27;42.15;;;17.42;;
13590;SDS011;6866;50.778;7.206;2022-12-04T11:45:58;20.30;;;10.85;;
13590;SDS011;6866;50.778;7.206;2022-12-04T11:48:25;19.02;;;9.70;;
13590;SDS011;6866;50.778;7.206;2022-12-04T11:56:44;22.02;;;10.73;;
13590;SDS011;6866;50.778;7.206;2022-12-04T12:07:52;22.98;;;11.45;;
13590;SDS011;6866;50.778;7.206;2022-12-04T12:18:57;26.27;;;11.52;;
13590;SDS011;6866;50.778;7.206;2022-12-04T12:21:34;24.98;;;11.75;;
13590;SDS011;6866;50.778;7.206;2022-12-04T12:24:24;21.88;;;11.10;;
13590;SDS011;6866;50.778;7.206;2022-12-04T12:32:05;22.15;;;10.85;;
13590;SDS011;6866;50.778;7.206;2022-12-04T12:34:38;23.83;;;11.55;;
13590;SDS011;6866;50.778;7.206;2022-12-04T12:37:52;22.08;;;11.13;;
13590;SDS011;6866;50.778;7.206;2022-12-04T12:40:34;23.25;;;10.98;;
13590;SDS011;6866;50.778;7.206;2022-12-04T12:45:52;22.27;;;11.33;;
13590;SDS011;6866;50.778;7.206;2022-12-04T12:54:03;24.00;;;12.07;;
13590;SDS011;6866;50.778;7.206;2022-12-04T12:59:38;28.83;;;13.57;;
13590;SDS011;6866;50.778;7.206;2022-12-04T13:02:26;24.98;;;12.90;;
13590;SDS011;6866;50.778;7.206;2022-12-04T13:04:54;25.13;;;11.75;;
13590;SDS011;6866;50.778;7.206;2022-12-04T13:07:28;25.30;;;13.18;;
13590;SDS011;6866;50.778;7.206;2022-12-04T13:10:25;24.77;;;12.40;;
13590;SDS011;6866;50.778;7.206;2022-12-04T13:13:13;23.38;;;11.85;;
13590;SDS011;6866;50.778;7.206;2022-12-04T13:15:45;26.88;;;12.52;;
13590;SDS011;6866;50.778;7.206;2022-12-04T13:18:26;24.55;;;12.52;;
13590;SDS011;6866;50.778;7.206;2022-12-04T13:20:55;26.65;;;13.00;;
13590;SDS011;6866;50.778;7.206;2022-12-04T13:29:57;22.42;;;11.82;;
13590;SDS011;6866;50.778;7.206;2022-12-04T13:32:09;23.80;;;11.27;;
13590;SDS011;6866;50.778;7.206;2022-12-04T13:35:01;23.80;;;12.30;;
13590;SDS011;6866;50.778;7.206;2022-12-04T13:37:31;25.65;;;13.10;;
13590;SDS011;6866;50.778;7.206;2022-12-04T13:40:26;26.83;;;13.38;;
13590;SDS011;6866;50.778;7.206;2022-12-04T13:43:05;28.23;;;13.60;;
13590;SDS011;6866;50.778;7.206;2022-12-04T13:45:39;26.17;;;12.60;;
13590;SDS011;6866;50.778;7.206;2022-12-04T13:48:05;25.73;;;12.73;;
13590;SDS011;6866;50.778;7.206;2022-12-04T13:50:34;26.65;;;13.25;;
13590;SDS011;6866;50.778;7.206;2022-12-04T13:53:01;25.05;;;12.70;;
13590;SDS011;6866;50.778;7.206;2022-12-04T13:55:33;25.75;;;12.13;;
13590;SDS011;6866;50.778;7.206;2022-12-04T14:00:37;25.33;;;12.68;;
13590;SDS011;6866;50.778;7.206;2022-12-04T14:03:18;24.70;;;12.80;;
13590;SDS011;6866;50.778;7.206;2022-12-04T14:05:48;24.65;;;13.00;;
13590;SDS011;6866;50.778;7.206;2022-12-04T14:08:23;26.23;;;13.23;;
13590;SDS011;6866;50.778;7.206;2022-12-04T14:10:56;26.30;;;13.68;;
13590;SDS011;6866;50.778;7.206;2022-12-04T14:13:23;27.50;;;14.32;;
13590;SDS011;6866;50.778;7.206;2022-12-04T14:16:16;27.50;;;13.57;;
13590;SDS011;6866;50.778;7.206;2022-12-04T14:18:57;28.73;;;13.85;;
13590;SDS011;6866;50.778;7.206;2022-12-04T14:21:24;32.22;;;16.60;;
13590;SDS011;6866;50.778;7.206;2022-12-04T14:23:50;29.77;;;13.85;;
13590;SDS011;6866;50.778;7.206;2022-12-04T14:26:24;24.77;;;12.48;;
13590;SDS011;6866;50.778;7.206;2022-12-04T14:31:45;24.83;;;13.05;;
13590;SDS011;6866;50.778;7.206;2022-12-04T14:36:45;27.38;;;13.85;;
13590;SDS011;6866;50.778;7.206;2022-12-04T14:41:43;25.02;;;12.52;;
13590;SDS011;6866;50.778;7.206;2022-12-04T14:44:27;27.67;;;14.27;;
13590;SDS011;6866;50.778;7.206;2022-12-04T14:46:55;28.30;;;13.50;;
13590;SDS011;6866;50.778;7.206;2022-12-04T14:58:00;30.10;;;14.68;;
13590;SDS011;6866;50.778;7.206;2022-12-04T15:00:52;28.63;;;13.80;;
13590;SDS011;6866;50.778;7.206;2022-12-04T15:03:19;30.23;;;14.45;;
13590;SDS011;6866;50.778;7.206;2022-12-04T15:05:45;25.48;;;13.48;;
13590;SDS011;6866;50.778;7.206;2022-12-04T15:08:11;30.80;;;14.65;;
13590;SDS011;6866;50.778;7.206;2022-12-04T15:10:38;28.92;;;14.75;;
13590;SDS011;6866;50.778;7.206;2022-12-04T15:13:26;28.63;;;15.93;;
13590;SDS011;6866;50.778;7.206;2022-12-04T15:15:53;30.80;;;16.25;;
13590;SDS011;6866;50.778;7.206;2022-12-04T15:18:19;29.13;;;15.30;;
13590;SDS011;6866;50.778;7.206;2022-12-04T15:23:14;28.83;;;14.38;;
13590;SDS011;6866;50.778;7.206;2022-12-04T15:25:44;28.23;;;15.00;;
13590;SDS011;6866;50.778;7.206;2022-12-04T15:28:13;31.65;;;17.15;;
13590;SDS011;6866;50.778;7.206;2022-12-04T15:30:46;31.90;;;16.40;;
13590;SDS011;6866;50.778;7.206;2022-12-04T15:33:14;28.90;;;16.48;;
13590;SDS011;6866;50.778;7.206;2022-12-04T15:35:44;32.38;;;16.33;;
13590;SDS011;6866;50.778;7.206;2022-12-04T15:38:14;28.65;;;14.43;;
13590;SDS011;6866;50.778;7.206;2022-12-04T15:40:50;30.63;;;15.63;;
13590;SDS011;6866;50.778;7.206;2022-12-04T15:46:10;30.45;;;15.20;;
13590;SDS011;6866;50.778;7.206;2022-12-04T15:48:37;29.38;;;15.45;;
13590;SDS011;6866;50.778;7.206;2022-12-04T15:51:03;29.08;;;14.65;;
13590;SDS011;6866;50.778;7.206;2022-12-04T15:53:32;27.33;;;14.50;;
13590;SDS011;6866;50.778;7.206;2022-12-04T15:56:03;30.30;;;14.98;;
13590;SDS011;6866;50.778;7.206;2022-12-04T16:01:03;27.23;;;14.95;;
13590;SDS011;6866;50.778;7.206;2022-12-04T16:08:44;28.90;;;14.93;;
13590;SDS011;6866;50.778;7.206;2022-12-04T16:14:00;28.08;;;14.05;;
13590;SDS011;6866;50.778;7.206;2022-12-04T16:16:32;28.30;;;13.77;;
13590;SDS011;6866;50.778;7.206;2022-12-04T16:19:01;28.00;;;14.30;;
13590;SDS011;6866;50.778;7.206;2022-12-04T16:21:32;27.85;;;14.00;;
13590;SDS011;6866;50.778;7.206;2022-12-04T16:24:01;25.92;;;13.50;;
13590;SDS011;6866;50.778;7.206;2022-12-04T16:26:27;29.20;;;16.45;;
13590;SDS011;6866;50.778;7.206;2022-12-04T16:28:53;53.50;;;26.77;;
13590;SDS011;6866;50.778;7.206;2022-12-04T16:31:18;41.85;;;21.00;;
13590;SDS011;6866;50.778;7.206;2022-12-04T16:33:44;30.10;;;15.13;;
13590;SDS011;6866;50.778;7.206;2022-12-04T16:36:10;29.50;;;15.25;;
13590;SDS011;6866;50.778;7.206;2022-12-04T16:38:36;33.22;;;15.73;;
13590;SDS011;6866;50.778;7.206;2022-12-04T16:41:03;28.23;;;15.13;;
13590;SDS011;6866;50.778;7.206;2022-12-04T16:43:29;37.85;;;16.40;;
13590;SDS011;6866;50.778;7.206;2022-12-04T16:45:55;33.08;;;16.35;;
13590;SDS011;6866;50.778;7.206;2022-12-04T16:48:23;31.27;;;16.58;;
13590;SDS011;6866;50.778;7.206;2022-12-04T16:50:49;33.47;;;17.20;;
13590;SDS011;6866;50.778;7.206;2022-12-04T16:53:15;32.95;;;17.42;;
13590;SDS011;6866;50.778;7.206;2022-12-04T16:55:46;33.95;;;16.83;;
13590;SDS011;6866;50.778;7.206;2022-12-04T16:58:13;31.90;;;16.10;;
13590;SDS011;6866;50.778;7.206;2022-12-04T17:00:40;35.50;;;16.90;;
13590;SDS011;6866;50.778;7.206;2022-12-04T17:03:16;31.65;;;15.82;;
13590;SDS011;6866;50.778;7.206;2022-12-04T17:05:47;34.13;;;17.02;;
13590;SDS011;6866;50.778;7.206;2022-12-04T17:08:13;32.78;;;16.23;;
13590;SDS011;6866;50.778;7.206;2022-12-04T17:10:38;31.80;;;16.23;;